createdAt,value
2023-04-18T00:01:40.279Z,2.30
2023-04-18T00:04:46.553Z,2.25
2023-04-18T00:07:50.041Z,2.60
2023-04-18T00:10:52.599Z,2.30
2023-04-18T00:13:55.173Z,2.63
2023-04-18T00:16:57.784Z,2.40
2023-04-18T00:20:07.228Z,2.63
2023-04-18T00:23:14.201Z,2.42
2023-04-18T00:26:17.640Z,2.50
2023-04-18T00:29:24.203Z,2.43
2023-04-18T00:32:29.011Z,2.80
2023-04-18T00:35:32.151Z,2.90
2023-04-18T00:38:35.832Z,2.42
2023-04-18T00:41:38.587Z,2.80
2023-04-18T00:44:41.186Z,2.60
2023-04-18T00:47:45.460Z,2.60
2023-04-18T00:50:48.074Z,2.70
2023-04-18T00:53:51.393Z,2.70
2023-04-18T00:56:54.205Z,2.50
2023-04-18T00:59:56.903Z,2.53
2023-04-18T01:03:01.084Z,2.67
2023-04-18T01:06:04.071Z,2.60
2023-04-18T01:09:09.429Z,2.50
2023-04-18T01:12:12.064Z,2.80
2023-04-18T01:15:14.727Z,2.83
2023-04-18T01:18:19.166Z,2.63
2023-04-18T01:21:22.294Z,2.70
2023-04-18T01:24:26.908Z,2.53
2023-04-18T01:27:29.575Z,2.97
2023-04-18T01:30:33.743Z,2.60
2023-04-18T01:33:36.450Z,2.97
2023-04-18T01:36:39.170Z,2.80
2023-04-18T01:39:42.074Z,2.70
2023-04-18T01:42:46.185Z,2.83
2023-04-18T01:45:48.868Z,2.70
2023-04-18T01:48:51.589Z,2.90
2023-04-18T01:51:57.186Z,2.67
2023-04-18T01:55:02.175Z,2.75
2023-04-18T01:58:04.829Z,2.80
2023-04-18T02:01:08.845Z,2.90
2023-04-18T02:04:11.811Z,2.87
2023-04-18T02:07:14.668Z,3.13
2023-04-18T02:10:18.360Z,3.13
2023-04-18T02:13:21.031Z,3.25
2023-04-18T02:16:23.727Z,2.90
2023-04-18T02:19:26.483Z,2.90
2023-04-18T02:22:29.189Z,3.15
2023-04-18T02:25:33.036Z,3.22
2023-04-18T02:28:38.928Z,3.10
2023-04-18T02:31:42.497Z,3.37
2023-04-18T02:34:45.336Z,3.17
2023-04-18T02:37:48.094Z,3.33
2023-04-18T02:40:51.071Z,4.03
2023-04-18T02:43:55.290Z,3.50
2023-04-18T02:46:58.802Z,3.43
2023-04-18T02:50:01.661Z,3.40
2023-04-18T02:53:04.601Z,3.90
2023-04-18T02:56:24.399Z,3.58
2023-04-18T02:59:46.869Z,3.90
2023-04-18T03:02:50.700Z,4.20
2023-04-18T03:06:04.482Z,3.97
2023-04-18T03:09:09.021Z,4.00
2023-04-18T03:12:16.220Z,3.85
2023-04-18T03:15:19.755Z,4.32
2023-04-18T03:18:24.265Z,4.57
2023-04-18T03:21:31.470Z,4.47
2023-04-18T03:24:34.730Z,4.00
2023-04-18T03:27:40.557Z,4.57
2023-04-18T03:30:44.326Z,4.28
2023-04-18T03:33:51.705Z,4.40
2023-04-18T03:36:54.854Z,4.60
2023-04-18T03:39:57.690Z,4.25
2023-04-18T03:43:03.193Z,4.18
2023-04-18T03:46:06.131Z,4.75
2023-04-18T03:49:09.492Z,4.70
2023-04-18T03:52:14.329Z,4.90
2023-04-18T03:55:19.706Z,4.55
2023-04-18T03:58:23.844Z,4.90
2023-04-18T04:01:28.976Z,4.70
2023-04-18T04:04:31.689Z,4.43
2023-04-18T04:07:35.418Z,5.23
2023-04-18T04:10:38.625Z,4.72
2023-04-18T04:13:41.358Z,4.88
2023-04-18T04:16:46.044Z,5.30
2023-04-18T04:19:52.384Z,4.87
2023-04-18T04:22:58.998Z,5.70
2023-04-18T04:26:03.380Z,5.20
2023-04-18T04:29:25.057Z,5.75
2023-04-18T04:32:29.428Z,5.68
2023-04-18T04:35:32.301Z,5.40
2023-04-18T04:38:38.482Z,5.00
2023-04-18T04:41:43.196Z,5.88
2023-04-18T04:44:47.337Z,6.38
2023-04-18T04:47:51.160Z,5.97
2023-04-18T04:50:57.529Z,5.63
2023-04-18T04:54:01.845Z,6.03
2023-04-18T04:57:05.528Z,6.07
2023-04-18T05:00:09.068Z,6.25
2023-04-18T05:03:12.531Z,6.13
2023-04-18T05:06:20.659Z,6.07
2023-04-18T05:09:23.928Z,6.33
2023-04-18T05:12:26.892Z,7.82
2023-04-18T05:15:33.499Z,5.50
2023-04-18T05:18:39.943Z,5.95
2023-04-18T05:21:45.639Z,6.50
2023-04-18T05:24:51.470Z,5.43
2023-04-18T05:27:54.312Z,5.90
2023-04-18T05:31:13.993Z,5.15
2023-04-18T05:34:16.883Z,5.05
2023-04-18T05:37:19.573Z,5.50
2023-04-18T05:40:22.203Z,5.00
2023-04-18T05:43:25.180Z,5.18
2023-04-18T05:46:27.910Z,4.85
2023-04-18T05:49:31.618Z,4.88
2023-04-18T05:52:38.916Z,5.27
2023-04-18T05:55:41.897Z,5.60
2023-04-18T05:58:45.841Z,5.25
2023-04-18T06:01:49.582Z,5.10
2023-04-18T06:04:53.697Z,4.88
2023-04-18T06:07:57.737Z,4.83
2023-04-18T06:11:03.422Z,5.00
2023-04-18T06:14:06.269Z,4.38
2023-04-18T06:17:10.204Z,4.60
2023-04-18T06:20:13.053Z,4.65
2023-04-18T06:23:16.136Z,4.57
2023-04-18T06:26:18.930Z,4.03
2023-04-18T06:29:23.236Z,4.82
2023-04-18T06:32:26.901Z,4.13
2023-04-18T06:35:32.347Z,4.38
2023-04-18T06:38:35.496Z,4.60
2023-04-18T06:41:38.547Z,4.67
2023-04-18T06:44:43.325Z,4.40
2023-04-18T06:47:47.815Z,4.45
2023-04-18T06:50:50.887Z,4.30
2023-04-18T06:53:54.432Z,4.07
2023-04-18T06:56:57.473Z,3.70
2023-04-18T07:00:07.892Z,3.55
2023-04-18T07:03:18.188Z,3.80
2023-04-18T07:06:21.530Z,3.42
2023-04-18T07:09:24.510Z,3.77
2023-04-18T07:12:32.417Z,3.13
2023-04-18T07:15:43.281Z,3.35
2023-04-18T07:19:04.612Z,3.13
2023-04-18T07:22:11.872Z,2.95
2023-04-18T07:25:14.613Z,3.10
2023-04-18T07:28:17.363Z,2.70
2023-04-18T07:31:20.430Z,2.58
2023-04-18T07:34:23.495Z,2.78
2023-04-18T07:37:26.758Z,2.65
2023-04-18T07:40:29.565Z,2.50
2023-04-18T07:43:32.578Z,2.80
2023-04-18T07:46:50.317Z,16.85
2023-04-18T07:50:17.575Z,3.40
2023-04-18T07:53:38.394Z,2.70
2023-04-18T07:56:48.025Z,2.67
2023-04-18T08:00:03.662Z,2.17
2023-04-18T08:03:18.062Z,2.50
2023-04-18T08:06:37.685Z,2.40
2023-04-18T08:09:44.900Z,2.42
2023-04-18T08:12:48.995Z,2.40
2023-04-18T08:15:51.855Z,2.50
2023-04-18T08:19:01.197Z,2.30
2023-04-18T08:22:10.719Z,2.33
2023-04-18T08:25:14.428Z,2.42
2023-04-18T08:28:17.977Z,1.97
2023-04-18T08:31:20.926Z,2.30
2023-04-18T08:34:24.369Z,1.98
2023-04-18T08:37:28.125Z,2.67
2023-04-18T08:40:31.087Z,2.00
2023-04-18T08:43:34.700Z,1.83
2023-04-18T08:46:37.789Z,1.57
2023-04-18T08:49:42.813Z,2.30
2023-04-18T08:52:50.203Z,2.13
2023-04-18T08:55:57.432Z,2.00
2023-04-18T08:59:00.577Z,2.00
2023-04-18T09:02:10.497Z,2.20
2023-04-18T09:05:16.691Z,2.20
2023-04-18T09:08:24.559Z,2.17
2023-04-18T09:11:32.709Z,2.08
2023-04-18T09:14:49.739Z,2.10
2023-04-18T09:17:58.190Z,2.23
2023-04-18T09:21:19.819Z,2.35
2023-04-18T09:24:30.482Z,2.20
2023-04-18T09:27:53.757Z,3.17
2023-04-18T09:31:14.775Z,2.20
2023-04-18T09:34:54.091Z,2.50
2023-04-18T09:38:13.785Z,2.58
2023-04-18T09:41:21.190Z,2.75
2023-04-18T09:45:27.960Z,2.50
2023-04-18T09:48:38.033Z,2.67
2023-04-18T09:51:45.899Z,2.80
2023-04-18T09:55:07.068Z,2.13
2023-04-18T09:58:16.002Z,3.20
2023-04-18T10:01:19.570Z,2.45
2023-04-18T10:04:22.742Z,2.03
2023-04-18T10:07:27.520Z,4.53
2023-04-18T10:10:32.372Z,2.22
2023-04-18T10:13:48.480Z,1.95
2023-04-18T10:16:51.905Z,1.60
2023-04-18T10:20:08.129Z,1.90
2023-04-18T10:23:36.213Z,1.20
2023-04-18T10:26:50.368Z,2.00
2023-04-18T10:29:54.225Z,1.90
2023-04-18T10:32:56.947Z,1.90
2023-04-18T10:36:09.047Z,2.30
2023-04-18T10:39:22.613Z,2.50
2023-04-18T10:42:52.126Z,2.15
2023-04-18T10:46:23.924Z,1.90
2023-04-18T10:49:36.055Z,1.45
2023-04-18T10:52:39.535Z,1.47
2023-04-18T10:55:53.736Z,1.50
2023-04-18T10:59:01.496Z,2.03
2023-04-18T11:02:12.980Z,2.53
2023-04-18T11:05:21.999Z,3.55
2023-04-18T11:08:30.520Z,1.67
2023-04-18T11:11:34.344Z,1.63
2023-04-18T11:14:57.693Z,1.70
2023-04-18T11:18:06.274Z,1.23
2023-04-18T11:21:09.443Z,1.60
2023-04-18T11:24:21.710Z,1.80
2023-04-18T11:27:26.292Z,2.10
2023-04-18T11:30:41.098Z,1.40
2023-04-18T11:33:47.998Z,1.42
2023-04-18T11:36:51.461Z,1.42
2023-04-18T11:39:54.243Z,1.40
2023-04-18T11:43:01.517Z,1.73
2023-04-18T11:46:04.256Z,1.52
2023-04-18T11:49:07.156Z,1.50
2023-04-18T11:52:16.048Z,1.63
2023-04-18T11:56:36.830Z,1.90
2023-04-18T12:00:10.203Z,1.60
2023-04-18T12:03:20.522Z,1.80
2023-04-18T12:06:26.829Z,1.85
2023-04-18T12:09:30.111Z,1.80
2023-04-18T12:12:33.450Z,1.83
2023-04-18T12:15:42.857Z,1.70
2023-04-18T12:19:11.182Z,1.85
2023-04-18T12:22:50.807Z,1.60
2023-04-18T12:26:00.700Z,2.00
2023-04-18T12:29:03.677Z,1.90
2023-04-18T12:32:07.822Z,2.10
2023-04-18T12:35:10.832Z,1.80
2023-04-18T12:38:13.570Z,1.83
2023-04-18T12:41:16.925Z,1.77
2023-04-18T12:44:19.829Z,3.47
2023-04-18T12:47:32.655Z,3.63
2023-04-18T12:50:39.213Z,2.17
2023-04-18T12:54:06.566Z,1.92
2023-04-18T12:57:29.974Z,1.75
2023-04-18T13:00:34.753Z,1.80
2023-04-18T13:03:53.423Z,2.00
2023-04-18T13:07:02.727Z,2.63
2023-04-18T13:10:05.760Z,1.90
2023-04-18T13:13:09.518Z,1.80
2023-04-18T13:16:13.035Z,2.17
2023-04-18T13:19:15.829Z,2.63
2023-04-18T13:22:21.949Z,2.33
2023-04-18T13:25:26.010Z,2.30
2023-04-18T13:28:30.360Z,2.10
2023-04-18T13:31:33.041Z,2.50
2023-04-18T13:34:42.711Z,2.10
2023-04-18T13:37:46.257Z,2.15
2023-04-18T13:40:55.811Z,2.35
2023-04-18T13:44:08.266Z,2.40
2023-04-18T13:47:17.801Z,2.58
2023-04-18T13:50:23.623Z,3.07
2023-04-18T13:53:27.228Z,2.58
2023-04-18T13:56:31.010Z,2.40
2023-04-18T13:59:33.562Z,3.05
2023-04-18T14:02:36.519Z,1.67
2023-04-18T14:05:40.116Z,1.67
2023-04-18T14:08:42.851Z,2.70
2023-04-18T14:11:45.821Z,2.30
2023-04-18T14:14:51.134Z,2.45
2023-04-18T14:17:54.587Z,2.40
2023-04-18T14:20:57.280Z,2.50
2023-04-18T14:24:10.139Z,2.65
2023-04-18T14:27:12.782Z,2.30
2023-04-18T14:30:15.643Z,2.00
2023-04-18T14:33:18.420Z,2.30
2023-04-18T14:36:21.505Z,2.20
2023-04-18T14:39:25.186Z,2.13
2023-04-18T14:42:27.765Z,2.00
2023-04-18T14:45:34.229Z,3.00
2023-04-18T14:48:37.712Z,2.30
2023-04-18T14:51:42.257Z,2.63
2023-04-18T14:54:45.166Z,2.72
2023-04-18T14:57:47.904Z,2.25
2023-04-18T15:00:55.140Z,2.78
2023-04-18T15:04:00.360Z,4.17
2023-04-18T15:07:04.078Z,2.57
2023-04-18T15:10:08.588Z,1.90
2023-04-18T15:13:11.640Z,2.38
2023-04-18T15:16:14.244Z,2.55
2023-04-18T15:19:17.030Z,2.22
2023-04-18T15:22:19.606Z,2.73
2023-04-18T15:25:23.548Z,2.15
2023-04-18T15:28:26.116Z,2.40
2023-04-18T15:31:28.688Z,1.90
2023-04-18T15:34:31.488Z,2.47
2023-04-18T15:37:34.995Z,1.97
2023-04-18T15:40:38.181Z,1.80
2023-04-18T15:43:42.402Z,1.90
2023-04-18T15:46:45.016Z,1.98
2023-04-18T15:49:47.977Z,1.93
2023-04-18T15:52:51.884Z,2.10
2023-04-18T15:55:55.540Z,2.20
2023-04-18T15:59:00.118Z,1.92
2023-04-18T16:02:03.278Z,1.67
2023-04-18T16:05:07.563Z,2.40
2023-04-18T16:08:10.514Z,1.90
2023-04-18T16:11:13.150Z,5.45
2023-04-18T16:14:16.319Z,2.17
2023-04-18T16:17:25.138Z,1.80
2023-04-18T16:20:28.680Z,2.53
2023-04-18T16:23:32.599Z,1.60
2023-04-18T16:26:35.246Z,2.40
2023-04-18T16:29:37.739Z,1.80
2023-04-18T16:32:40.403Z,1.90
2023-04-18T16:35:43.671Z,2.03
2023-04-18T16:38:46.383Z,2.00
2023-04-18T16:41:48.852Z,2.50
2023-04-18T16:44:52.727Z,2.10
2023-04-18T16:47:57.245Z,1.90
2023-04-18T16:50:59.965Z,2.40
2023-04-18T16:54:04.753Z,2.47
2023-04-18T16:57:08.250Z,2.35
2023-04-18T17:00:17.600Z,2.58
2023-04-18T17:03:23.645Z,2.15
2023-04-18T17:06:27.252Z,2.00
2023-04-18T17:09:30.440Z,1.87
2023-04-18T17:12:33.688Z,1.92
2023-04-18T17:15:37.064Z,1.85
2023-04-18T17:18:41.665Z,1.80
2023-04-18T17:21:45.556Z,1.90
2023-04-18T17:24:48.762Z,2.10
2023-04-18T17:27:51.300Z,1.95
2023-04-18T17:30:53.919Z,1.90
2023-04-18T17:33:56.928Z,1.92
2023-04-18T17:37:00.282Z,2.17
2023-04-18T17:40:06.651Z,2.13
2023-04-18T17:43:11.781Z,2.30
2023-04-18T17:46:15.603Z,2.47
2023-04-18T17:49:18.425Z,2.17
2023-04-18T17:52:21.688Z,2.07
2023-04-18T17:55:26.165Z,2.20
2023-04-18T17:58:29.315Z,2.65
2023-04-18T18:01:32.908Z,2.50
2023-04-18T18:04:35.652Z,2.60
2023-04-18T18:07:38.540Z,2.90
2023-04-18T18:10:49.789Z,2.63
2023-04-18T18:13:54.678Z,3.70
2023-04-18T18:16:57.341Z,3.90
2023-04-18T18:20:00.122Z,3.95
2023-04-18T18:23:02.831Z,3.43
2023-04-18T18:26:06.665Z,3.17
2023-04-18T18:29:11.203Z,3.50
2023-04-18T18:32:14.127Z,5.35
2023-04-18T18:35:16.797Z,3.72
2023-04-18T18:38:20.464Z,3.47
2023-04-18T18:41:23.397Z,2.77
2023-04-18T18:44:25.945Z,3.70
2023-04-18T18:47:30.575Z,5.28
2023-04-18T18:50:34.387Z,3.47
2023-04-18T18:53:38.372Z,3.27
2023-04-18T18:56:44.269Z,3.53
2023-04-18T18:59:50.110Z,4.20
2023-04-18T19:02:53.588Z,3.67
2023-04-18T19:05:56.676Z,3.47
2023-04-18T19:08:59.969Z,3.00
2023-04-18T19:12:05.085Z,3.00
2023-04-18T19:15:08.473Z,4.90
2023-04-18T19:18:11.941Z,3.45
2023-04-18T19:21:15.978Z,3.58
2023-04-18T19:24:19.402Z,3.80
2023-04-18T19:27:22.203Z,3.50
2023-04-18T19:30:25.446Z,3.45
2023-04-18T19:33:29.338Z,3.83
2023-04-18T19:36:32.926Z,3.60
2023-04-18T19:39:35.488Z,3.50
2023-04-18T19:42:38.960Z,3.70
2023-04-18T19:45:42.552Z,4.28
2023-04-18T19:48:46.041Z,3.65
2023-04-18T19:51:49.073Z,3.55
2023-04-18T19:54:53.305Z,4.83
2023-04-18T19:57:59.455Z,3.30
2023-04-18T20:01:05.855Z,3.50
2023-04-18T20:04:08.823Z,3.80
2023-04-18T20:07:11.516Z,4.20
2023-04-18T20:10:14.060Z,3.83
2023-04-18T20:13:16.622Z,3.37
2023-04-18T20:16:19.184Z,3.20
2023-04-18T20:19:26.877Z,3.40
2023-04-18T20:22:32.380Z,3.08
2023-04-18T20:25:35.949Z,3.00
2023-04-18T20:28:38.574Z,2.77
2023-04-18T20:31:42.459Z,2.60
2023-04-18T20:34:46.736Z,2.85
2023-04-18T20:37:50.512Z,2.50
2023-04-18T20:40:54.212Z,2.40
2023-04-18T20:43:58.737Z,3.30
2023-04-18T20:47:02.374Z,3.80
2023-04-18T20:50:06.185Z,3.30
2023-04-18T20:53:09.601Z,3.33
2023-04-18T20:56:12.143Z,3.33
2023-04-18T20:59:15.632Z,2.90
2023-04-18T21:02:19.195Z,3.38
2023-04-18T21:05:22.021Z,3.55
2023-04-18T21:08:25.575Z,2.88
2023-04-18T21:11:28.345Z,3.47
2023-04-18T21:14:31.438Z,2.80
2023-04-18T21:17:34.130Z,3.30
2023-04-18T21:20:38.608Z,3.05
2023-04-18T21:23:43.338Z,2.80
2023-04-18T21:26:46.638Z,2.80
2023-04-18T21:29:51.049Z,3.00
2023-04-18T21:32:54.722Z,3.35
2023-04-18T21:35:58.047Z,2.80
2023-04-18T21:39:01.748Z,3.38
2023-04-18T21:42:04.418Z,3.17
2023-04-18T21:45:07.713Z,3.10
2023-04-18T21:48:11.516Z,3.10
2023-04-18T21:51:16.666Z,3.35
2023-04-18T21:54:19.311Z,3.30
2023-04-18T21:57:22.661Z,3.00
2023-04-18T22:00:25.274Z,3.33
2023-04-18T22:03:29.502Z,3.15
2023-04-18T22:06:33.621Z,2.80
2023-04-18T22:09:36.392Z,3.00
2023-04-18T22:12:39.557Z,2.97
2023-04-18T22:15:43.138Z,3.20
2023-04-18T22:18:47.099Z,3.30
2023-04-18T22:21:49.753Z,3.35
2023-04-18T22:24:53.162Z,3.15
2023-04-18T22:27:56.674Z,3.00
2023-04-18T22:31:01.072Z,3.20
2023-04-18T22:34:04.863Z,3.03
2023-04-18T22:37:07.395Z,3.20
2023-04-18T22:40:11.738Z,2.88
2023-04-18T22:43:14.286Z,3.00
2023-04-18T22:46:17.776Z,3.10
2023-04-18T22:49:22.295Z,3.13
2023-04-18T22:52:25.760Z,3.22
2023-04-18T22:55:28.377Z,3.10
2023-04-18T22:58:31.655Z,3.00
2023-04-18T23:01:35.300Z,3.20
2023-04-18T23:04:40.114Z,3.42
2023-04-18T23:07:42.796Z,2.80
2023-04-18T23:10:45.742Z,2.72
2023-04-18T23:13:49.248Z,3.30
2023-04-18T23:16:52.776Z,3.00
2023-04-18T23:19:56.148Z,2.70
2023-04-18T23:22:59.661Z,3.20
2023-04-18T23:26:03.452Z,3.13
2023-04-18T23:29:06.733Z,3.23
2023-04-18T23:32:09.305Z,3.00
2023-04-18T23:35:12.075Z,3.15
2023-04-18T23:38:14.688Z,3.10
2023-04-18T23:41:18.225Z,3.38
2023-04-18T23:44:21.904Z,2.97
2023-04-18T23:47:24.552Z,2.80
2023-04-18T23:50:27.297Z,2.95
2023-04-18T23:53:30.916Z,3.10
2023-04-18T23:56:34.369Z,3.08
2023-04-18T23:59:37.484Z,3.00
